This is the latest recevied weather packets stored in our database for station/object KO4YAW. If no packets are shown the sender has not sent any weather packets the latest 10 day(s).
| Time | Temp. | Humidity | Pressure | Rain* | Wind** | Luminosity | Snow |
|---|---|---|---|---|---|---|---|
| 1787957283 | 33.33° C | 20% | 1018.6 hPa | 0 mm | - | 541 W/m² | - |
| 1787956383 | 32.22° C | 22% | 1018.6 hPa | 0 mm | - | 556 W/m² | - |
| 1787955491 | 31.67° C | 22% | 1019.1 hPa | 0 mm | - | 109 W/m² | - |
| 1787954583 | 31.67° C | 22% | 1019.2 hPa | 0 mm | - | 148 W/m² | - |
| 1787953683 | 31.11° C | 23% | 1019.3 hPa | 0 mm | - | 237 W/m² | - |
| 1787952783 | 30° C | 25% | 1019.7 hPa | 0 mm | - | 518 W/m² | - |
| 1787951883 | 31.67° C | 26% | 1020.3 hPa | 0 mm | - | 186 W/m² | - |
| 1787950983 | 33.33° C | 22% | 1020.1 hPa | 0 mm | - | 101 W/m² | - |
| 1787950083 | 35.56° C | 19% | 1019.7 hPa | 0 mm | - | 164 W/m² | - |
| 1787949183 | 35.56° C | 18% | 1019.7 hPa | 0 mm | - | 544 W/m² | - |
| 1787948283 | 34.44° C | 18% | 1019.9 hPa | 0 mm | - | 103 W/m² | - |
| 1787947383 | 33.89° C | 20% | 1020.1 hPa | 0 mm | - | 797 W/m² | - |
| 1787946483 | 33.89° C | 20% | 1020.3 hPa | 0 mm | - | 255 W/m² | - |
| 1787945583 | 34.44° C | 20% | 1020.4 hPa | 0 mm | - | 240 W/m² | - |
| 1787944683 | 33.89° C | 19% | 1020.3 hPa | 0 mm | - | 968 W/m² | - |
| 1787943783 | 33.33° C | 19% | 1020.6 hPa | 0 mm | - | 392 W/m² | - |
| 1787943690 | 33.33° C | 19% | 1020.6 hPa | 0 mm | - | 392 W/m² | - |
| 1787942992 | 33.33° C | 20% | 1020.8 hPa | 0 mm | - | 665 W/m² | - |
| 1787942092 | 33.33° C | 20% | 1020.9 hPa | 0 mm | - | 410 W/m² | - |
| 1787941192 | 33.33° C | 20% | 1021.2 hPa | 0 mm | - | 337 W/m² | - |
| 1787940292 | 32.78° C | 21% | 1021.4 hPa | 0 mm | - | 616 W/m² | - |
| 1787939392 | 31.67° C | 22% | 1021.6 hPa | 0 mm | - | 623 W/m² | - |
| 1787938492 | 31.11° C | 25% | 1021.9 hPa | 0 mm | - | 211 W/m² | - |
| 1787937592 | 31.11° C | 27% | 1021.9 hPa | 0 mm | - | 129 W/m² | - |
| 1787936692 | 30.56° C | 27% | 1022.2 hPa | 0 mm | - | 415 W/m² | - |
* Rain since midnight (hover to see other rain measurements)
** Current wind speed in m/s (hover to see current wind gust speed)